LXGB/GIB METAR and TAF weather

Enter ICAO airport designator
Station Type Date Time Source
LXGB METAR 2022/06/25 22:50 UTC NOAA

LXGB 252250Z AUTO 27011KT 9999 NCD 20/14 Q1012


Station Type Date Time Source
LXGB Decoded METAR 2022/06/25 22:50 UTC NOAA

Gibraltar, Gibraltar (LXGB) 36-09N 005-21W 0M
Jun 25, 2022 - 06:50 PM EDT / 2022.06.25 2250 UTC
Wind: from the W (270 degrees) at 13 MPH (11 KT):0
Visibility: greater than 7 mile(s):0
Temperature: 68 F (20 C)
Dew Point: 57 F (14 C)
Relative Humidity: 68%
Pressure (altimeter): 29.88 in. Hg (1012 hPa)
ob: LXGB 252250Z AUTO 27011KT 9999 NCD 20/14 Q1012
cycle: 23

Station Type Date Time Source
LXGB TAF 2022/02/14 18:57 UTC NOAA

TAF
AMD TAF
AMD LXGB 141754Z 1418/1523 CNL

Example: see airport list